sensor_id;sensor_type;location;lat;lon;timestamp;pressure;altitude;pressure_sealevel;temperature;humidity
78488;BME280;67885;49.758;9.582;2023-12-07T00:02:01;99507.25;;;8.60;51.29
78488;BME280;67885;49.758;9.582;2023-12-07T00:04:28;99468.31;;;8.36;51.60
78488;BME280;67885;49.758;9.582;2023-12-07T00:06:55;99520.25;;;8.63;51.21
78488;BME280;67885;49.758;9.582;2023-12-07T00:09:22;99493.63;;;8.53;51.69
78488;BME280;67885;49.758;9.582;2023-12-07T00:11:48;99502.81;;;8.60;51.59
78488;BME280;67885;49.758;9.582;2023-12-07T00:14:15;99512.31;;;8.63;51.46
78488;BME280;67885;49.758;9.582;2023-12-07T00:16:42;99517.59;;;8.63;52.37
78488;BME280;67885;49.758;9.582;2023-12-07T00:19:09;99525.41;;;8.65;51.45
78488;BME280;67885;49.758;9.582;2023-12-07T00:21:37;99526.34;;;8.64;51.80
78488;BME280;67885;49.758;9.582;2023-12-07T00:24:04;99510.09;;;8.57;51.96
78488;BME280;67885;49.758;9.582;2023-12-07T00:26:30;99519.38;;;8.63;52.19
78488;BME280;67885;49.758;9.582;2023-12-07T00:28:57;99517.91;;;8.58;51.80
78488;BME280;67885;49.758;9.582;2023-12-07T00:31:24;99530.69;;;8.65;50.79
78488;BME280;67885;49.758;9.582;2023-12-07T00:33:51;99521.28;;;8.60;51.61
78488;BME280;67885;49.758;9.582;2023-12-07T00:36:18;99514.31;;;8.59;52.05
78488;BME280;67885;49.758;9.582;2023-12-07T00:38:46;99539.22;;;8.55;52.40
78488;BME280;67885;49.758;9.582;2023-12-07T00:41:12;99525.19;;;8.55;51.52
78488;BME280;67885;49.758;9.582;2023-12-07T00:43:39;99533.94;;;8.55;52.31
78488;BME280;67885;49.758;9.582;2023-12-07T00:46:06;99533.09;;;8.55;51.54
78488;BME280;67885;49.758;9.582;2023-12-07T00:48:33;99531.50;;;8.52;52.17
78488;BME280;67885;49.758;9.582;2023-12-07T00:51:00;99530.97;;;8.47;51.67
78488;BME280;67885;49.758;9.582;2023-12-07T00:53:26;99458.50;;;7.98;51.74
78488;BME280;67885;49.758;9.582;2023-12-07T00:55:54;99535.53;;;8.45;51.67
78488;BME280;67885;49.758;9.582;2023-12-07T00:58:21;99548.28;;;8.51;51.54
78488;BME280;67885;49.758;9.582;2023-12-07T01:00:48;99542.34;;;8.48;51.88
78488;BME280;67885;49.758;9.582;2023-12-07T01:03:15;99536.59;;;8.41;52.39
78488;BME280;67885;49.758;9.582;2023-12-07T01:05:41;99542.84;;;8.40;51.39
78488;BME280;67885;49.758;9.582;2023-12-07T01:08:08;99549.44;;;8.47;51.35
78488;BME280;67885;49.758;9.582;2023-12-07T01:10:34;99554.91;;;8.44;52.26
78488;BME280;67885;49.758;9.582;2023-12-07T01:13:02;99564.56;;;8.45;52.27
78488;BME280;67885;49.758;9.582;2023-12-07T01:15:29;99560.28;;;8.42;51.87
78488;BME280;67885;49.758;9.582;2023-12-07T01:17:55;99563.09;;;8.39;52.38
78488;BME280;67885;49.758;9.582;2023-12-07T01:20:22;99563.09;;;8.39;52.03
78488;BME280;67885;49.758;9.582;2023-12-07T01:22:49;99576.50;;;8.36;52.14
78488;BME280;67885;49.758;9.582;2023-12-07T01:25:15;99579.16;;;8.36;52.24
78488;BME280;67885;49.758;9.582;2023-12-07T01:27:46;99568.91;;;8.32;51.90
78488;BME280;67885;49.758;9.582;2023-12-07T01:30:14;99576.19;;;8.41;52.17
78488;BME280;67885;49.758;9.582;2023-12-07T01:32:41;99580.75;;;8.39;51.72
78488;BME280;67885;49.758;9.582;2023-12-07T01:35:08;99587.91;;;8.37;52.24
78488;BME280;67885;49.758;9.582;2023-12-07T01:37:35;99596.56;;;8.39;52.08
78488;BME280;67885;49.758;9.582;2023-12-07T01:40:01;99594.88;;;8.38;51.80
78488;BME280;67885;49.758;9.582;2023-12-07T01:42:31;99592.44;;;8.35;52.63
78488;BME280;67885;49.758;9.582;2023-12-07T01:44:57;99576.16;;;8.28;52.32
78488;BME280;67885;49.758;9.582;2023-12-07T01:47:26;99583.25;;;8.27;52.52
78488;BME280;67885;49.758;9.582;2023-12-07T01:49:53;99590.63;;;8.35;51.87
78488;BME280;67885;49.758;9.582;2023-12-07T01:54:53;99563.75;;;8.16;51.93
78488;BME280;67885;49.758;9.582;2023-12-07T01:57:20;99585.00;;;8.27;51.92
78488;BME280;67885;49.758;9.582;2023-12-07T01:59:48;99599.81;;;8.30;51.88
78488;BME280;67885;49.758;9.582;2023-12-07T02:02:15;99594.94;;;8.23;51.24
78488;BME280;67885;49.758;9.582;2023-12-07T02:04:43;99548.00;;;7.87;51.83
78488;BME280;67885;49.758;9.582;2023-12-07T02:07:10;99586.00;;;8.12;52.53
78488;BME280;67885;49.758;9.582;2023-12-07T02:09:38;99600.03;;;8.12;52.21
78488;BME280;67885;49.758;9.582;2023-12-07T02:12:05;99572.84;;;7.97;52.19
78488;BME280;67885;49.758;9.582;2023-12-07T02:14:31;99631.22;;;8.05;52.27
78488;BME280;67885;49.758;9.582;2023-12-07T02:17:09;99582.44;;;7.98;53.16
78488;BME280;67885;49.758;9.582;2023-12-07T02:20:01;99576.50;;;7.94;51.70
78488;BME280;67885;49.758;9.582;2023-12-07T02:22:37;99585.91;;;7.99;52.47
78488;BME280;67885;49.758;9.582;2023-12-07T02:25:07;99553.00;;;7.77;52.17
78488;BME280;67885;49.758;9.582;2023-12-07T02:27:37;99599.00;;;8.00;51.59
78488;BME280;67885;49.758;9.582;2023-12-07T02:30:04;99592.34;;;7.94;51.44
78488;BME280;67885;49.758;9.582;2023-12-07T02:32:30;99580.03;;;7.81;51.85
78488;BME280;67885;49.758;9.582;2023-12-07T02:34:57;99587.47;;;7.88;52.67
78488;BME280;67885;49.758;9.582;2023-12-07T02:37:27;99599.97;;;7.85;52.24
78488;BME280;67885;49.758;9.582;2023-12-07T02:39:56;99589.91;;;7.77;50.94
78488;BME280;67885;49.758;9.582;2023-12-07T02:42:24;99601.13;;;7.81;51.59
78488;BME280;67885;49.758;9.582;2023-12-07T02:44:53;99585.75;;;7.73;51.23
78488;BME280;67885;49.758;9.582;2023-12-07T02:47:20;99572.78;;;7.70;50.47
78488;BME280;67885;49.758;9.582;2023-12-07T02:49:46;99593.41;;;7.78;51.29
78488;BME280;67885;49.758;9.582;2023-12-07T02:52:13;99599.81;;;7.73;51.66
78488;BME280;67885;49.758;9.582;2023-12-07T02:54:40;99602.63;;;7.70;51.52
78488;BME280;67885;49.758;9.582;2023-12-07T02:57:07;99589.47;;;7.56;51.86
78488;BME280;67885;49.758;9.582;2023-12-07T02:59:34;99610.16;;;7.62;50.44
78488;BME280;67885;49.758;9.582;2023-12-07T03:02:02;99595.84;;;7.52;51.01
78488;BME280;67885;49.758;9.582;2023-12-07T03:04:28;99608.00;;;7.54;50.89
78488;BME280;67885;49.758;9.582;2023-12-07T03:06:55;99589.19;;;7.46;51.14
78488;BME280;67885;49.758;9.582;2023-12-07T03:09:21;99604.78;;;7.49;51.68
78488;BME280;67885;49.758;9.582;2023-12-07T03:11:48;99603.19;;;7.47;52.17
78488;BME280;67885;49.758;9.582;2023-12-07T03:14:15;99609.19;;;7.49;51.12
78488;BME280;67885;49.758;9.582;2023-12-07T03:16:41;99586.31;;;7.35;51.32
78488;BME280;67885;49.758;9.582;2023-12-07T03:19:09;99609.59;;;7.42;50.71
78488;BME280;67885;49.758;9.582;2023-12-07T03:21:38;99615.97;;;7.38;50.42
78488;BME280;67885;49.758;9.582;2023-12-07T03:24:06;99592.53;;;7.19;50.94
78488;BME280;67885;49.758;9.582;2023-12-07T03:26:33;99614.56;;;7.33;51.16
78488;BME280;67885;49.758;9.582;2023-12-07T03:29:01;99625.00;;;7.34;51.14
78488;BME280;67885;49.758;9.582;2023-12-07T03:31:28;99638.44;;;7.30;50.62
78488;BME280;67885;49.758;9.582;2023-12-07T03:33:55;99632.81;;;7.36;51.19
78488;BME280;67885;49.758;9.582;2023-12-07T03:36:24;99632.03;;;7.19;50.76
78488;BME280;67885;49.758;9.582;2023-12-07T03:38:50;99630.63;;;7.28;51.24
78488;BME280;67885;49.758;9.582;2023-12-07T03:41:17;99586.84;;;6.97;51.24
78488;BME280;67885;49.758;9.582;2023-12-07T03:43:44;99585.31;;;6.92;52.03
78488;BME280;67885;49.758;9.582;2023-12-07T03:46:10;99621.22;;;7.09;52.03
78488;BME280;67885;49.758;9.582;2023-12-07T03:48:37;99617.81;;;7.07;51.67
78488;BME280;67885;49.758;9.582;2023-12-07T03:51:04;99631.66;;;7.11;52.42
78488;BME280;67885;49.758;9.582;2023-12-07T03:53:32;99636.63;;;7.16;51.70
78488;BME280;67885;49.758;9.582;2023-12-07T03:55:59;99616.78;;;7.10;52.25
78488;BME280;67885;49.758;9.582;2023-12-07T03:58:25;99618.09;;;7.17;53.49
78488;BME280;67885;49.758;9.582;2023-12-07T04:00:52;99626.09;;;7.16;52.10
78488;BME280;67885;49.758;9.582;2023-12-07T04:03:19;99617.13;;;7.04;52.15
78488;BME280;67885;49.758;9.582;2023-12-07T04:05:45;99580.47;;;6.70;52.94
78488;BME280;67885;49.758;9.582;2023-12-07T04:08:12;99598.88;;;6.86;52.81
78488;BME280;67885;49.758;9.582;2023-12-07T04:10:40;99618.34;;;6.98;52.36
78488;BME280;67885;49.758;9.582;2023-12-07T04:13:06;99606.47;;;6.91;52.64
78488;BME280;67885;49.758;9.582;2023-12-07T04:15:33;99622.97;;;6.95;52.74
78488;BME280;67885;49.758;9.582;2023-12-07T04:17:59;99612.19;;;6.83;51.80
78488;BME280;67885;49.758;9.582;2023-12-07T04:20:26;99633.56;;;6.93;51.59
78488;BME280;67885;49.758;9.582;2023-12-07T04:22:54;99630.09;;;6.92;51.77
78488;BME280;67885;49.758;9.582;2023-12-07T04:25:20;99635.25;;;6.94;52.16
78488;BME280;67885;49.758;9.582;2023-12-07T04:27:49;99626.03;;;6.87;51.75
78488;BME280;67885;49.758;9.582;2023-12-07T04:30:16;99626.97;;;6.86;51.35
78488;BME280;67885;49.758;9.582;2023-12-07T04:32:42;99643.25;;;6.92;52.32
78488;BME280;67885;49.758;9.582;2023-12-07T04:35:09;99643.16;;;6.94;51.47
78488;BME280;67885;49.758;9.582;2023-12-07T04:37:35;99642.31;;;6.94;51.19
78488;BME280;67885;49.758;9.582;2023-12-07T04:40:02;99634.03;;;6.85;51.66
78488;BME280;67885;49.758;9.582;2023-12-07T04:42:30;99649.44;;;6.91;51.39
78488;BME280;67885;49.758;9.582;2023-12-07T04:44:58;99632.66;;;6.78;51.36
78488;BME280;67885;49.758;9.582;2023-12-07T04:47:24;99643.69;;;6.85;50.75
78488;BME280;67885;49.758;9.582;2023-12-07T04:49:51;99652.78;;;6.79;51.30
78488;BME280;67885;49.758;9.582;2023-12-07T04:52:17;99701.63;;;6.69;50.32
78488;BME280;67885;49.758;9.582;2023-12-07T04:54:44;99626.47;;;6.63;50.54
78488;BME280;67885;49.758;9.582;2023-12-07T04:57:11;99648.53;;;6.77;50.41
78488;BME280;67885;49.758;9.582;2023-12-07T04:59:37;99651.25;;;6.75;51.26
78488;BME280;67885;49.758;9.582;2023-12-07T05:02:05;99640.22;;;6.68;50.66
78488;BME280;67885;49.758;9.582;2023-12-07T05:04:32;99653.22;;;6.71;50.92
78488;BME280;67885;49.758;9.582;2023-12-07T05:06:59;99637.69;;;6.67;51.90
78488;BME280;67885;49.758;9.582;2023-12-07T05:09:26;99628.38;;;6.61;50.40
78488;BME280;67885;49.758;9.582;2023-12-07T05:11:56;99659.44;;;6.70;50.71
78488;BME280;67885;49.758;9.582;2023-12-07T05:14:23;99611.25;;;6.38;50.38
78488;BME280;67885;49.758;9.582;2023-12-07T05:16:50;99656.31;;;6.64;51.64
78488;BME280;67885;49.758;9.582;2023-12-07T05:19:19;99653.84;;;6.61;51.41
78488;BME280;67885;49.758;9.582;2023-12-07T05:21:47;99653.84;;;6.61;50.90
78488;BME280;67885;49.758;9.582;2023-12-07T05:24:13;99647.22;;;6.53;51.36
78488;BME280;67885;49.758;9.582;2023-12-07T05:26:40;99635.53;;;6.43;51.62
78488;BME280;67885;49.758;9.582;2023-12-07T05:29:07;99653.50;;;6.51;50.94
78488;BME280;67885;49.758;9.582;2023-12-07T05:31:34;99660.63;;;6.49;51.01
78488;BME280;67885;49.758;9.582;2023-12-07T05:34:00;99668.78;;;6.44;51.72
78488;BME280;67885;49.758;9.582;2023-12-07T05:36:28;99665.38;;;6.42;51.31
78488;BME280;67885;49.758;9.582;2023-12-07T05:38:55;99626.44;;;6.17;52.01
78488;BME280;67885;49.758;9.582;2023-12-07T05:41:22;99653.06;;;6.27;51.83
78488;BME280;67885;49.758;9.582;2023-12-07T05:43:48;99668.00;;;6.26;51.67
78488;BME280;67885;49.758;9.582;2023-12-07T05:46:16;99672.00;;;6.17;54.23
78488;BME280;67885;49.758;9.582;2023-12-07T05:48:43;99673.19;;;6.60;54.29
78488;BME280;67885;49.758;9.582;2023-12-07T05:51:12;99650.25;;;6.62;50.51
78488;BME280;67885;49.758;9.582;2023-12-07T05:53:41;99669.88;;;6.72;52.87
78488;BME280;67885;49.758;9.582;2023-12-07T05:56:08;99663.19;;;6.66;50.77
78488;BME280;67885;49.758;9.582;2023-12-07T05:58:35;99662.66;;;6.60;51.05
78488;BME280;67885;49.758;9.582;2023-12-07T06:01:02;99654.19;;;6.54;50.84
78488;BME280;67885;49.758;9.582;2023-12-07T06:03:29;99674.97;;;6.59;51.35
78488;BME280;67885;49.758;9.582;2023-12-07T06:05:56;99663.41;;;6.46;51.04
78488;BME280;67885;49.758;9.582;2023-12-07T06:08:22;99666.31;;;6.41;51.86
78488;BME280;67885;49.758;9.582;2023-12-07T06:10:50;99675.50;;;6.34;51.96
78488;BME280;67885;49.758;9.582;2023-12-07T06:13:17;99674.19;;;6.25;51.24
78488;BME280;67885;49.758;9.582;2023-12-07T06:15:43;99682.44;;;6.19;53.52
78488;BME280;67885;49.758;9.582;2023-12-07T06:18:10;99677.41;;;6.14;53.24
78488;BME280;67885;49.758;9.582;2023-12-07T06:20:36;99678.38;;;6.13;52.29
78488;BME280;67885;49.758;9.582;2023-12-07T06:23:03;99648.41;;;5.82;51.16
78488;BME280;67885;49.758;9.582;2023-12-07T06:25:30;99682.09;;;5.91;53.03
78488;BME280;67885;49.758;9.582;2023-12-07T06:27:58;99694.56;;;5.88;52.66
78488;BME280;67885;49.758;9.582;2023-12-07T06:30:25;99642.16;;;5.51;53.05
78488;BME280;67885;49.758;9.582;2023-12-07T06:32:51;99699.38;;;5.80;54.07
78488;BME280;67885;49.758;9.582;2023-12-07T06:35:18;99700.38;;;5.77;53.92
78488;BME280;67885;49.758;9.582;2023-12-07T06:37:44;99702.22;;;5.75;53.85
78488;BME280;67885;49.758;9.582;2023-12-07T06:40:12;99695.50;;;5.69;53.59
78488;BME280;67885;49.758;9.582;2023-12-07T06:42:39;99692.69;;;5.56;53.37
78488;BME280;67885;49.758;9.582;2023-12-07T06:45:08;99697.94;;;5.56;53.16
78488;BME280;67885;49.758;9.582;2023-12-07T06:47:36;99714.06;;;5.66;53.26
78488;BME280;67885;49.758;9.582;2023-12-07T06:50:04;99707.97;;;5.66;52.51
78488;BME280;67885;49.758;9.582;2023-12-07T06:52:33;99715.06;;;5.64;52.35
78488;BME280;67885;49.758;9.582;2023-12-07T06:55:00;99716.16;;;5.60;52.99
78488;BME280;67885;49.758;9.582;2023-12-07T06:57:26;99723.28;;;5.57;53.56
78488;BME280;67885;49.758;9.582;2023-12-07T06:59:53;99712.28;;;5.49;53.60
78488;BME280;67885;49.758;9.582;2023-12-07T07:02:22;99726.91;;;5.55;54.15
78488;BME280;67885;49.758;9.582;2023-12-07T07:04:49;99730.53;;;5.52;54.61
78488;BME280;67885;49.758;9.582;2023-12-07T07:07:16;99739.72;;;5.61;53.73
78488;BME280;67885;49.758;9.582;2023-12-07T07:09:43;99738.50;;;5.68;58.60
78488;BME280;67885;49.758;9.582;2023-12-07T07:12:11;99740.53;;;5.79;53.97
78488;BME280;67885;49.758;9.582;2023-12-07T07:14:37;99749.47;;;5.77;53.19
78488;BME280;67885;49.758;9.582;2023-12-07T07:17:04;99741.97;;;5.69;54.07
78488;BME280;67885;49.758;9.582;2023-12-07T07:19:32;99720.56;;;5.59;54.45
78488;BME280;67885;49.758;9.582;2023-12-07T07:21:58;99733.31;;;5.67;54.00
78488;BME280;67885;49.758;9.582;2023-12-07T07:24:25;99690.16;;;5.37;53.81
78488;BME280;67885;49.758;9.582;2023-12-07T07:26:51;99734.94;;;5.52;53.99
78488;BME280;67885;49.758;9.582;2023-12-07T07:29:18;99722.41;;;5.39;54.21
78488;BME280;67885;49.758;9.582;2023-12-07T07:31:45;99723.66;;;5.32;55.79
78488;BME280;67885;49.758;9.582;2023-12-07T07:34:11;99717.56;;;5.32;55.16
78488;BME280;67885;49.758;9.582;2023-12-07T07:36:40;99727.91;;;5.35;55.28
78488;BME280;67885;49.758;9.582;2023-12-07T07:39:07;99736.47;;;5.21;55.52
78488;BME280;67885;49.758;9.582;2023-12-07T07:41:34;99740.72;;;5.06;56.15
78488;BME280;67885;49.758;9.582;2023-12-07T07:44:01;99743.63;;;5.00;56.85
78488;BME280;67885;49.758;9.582;2023-12-07T07:46:27;99742.22;;;4.93;56.92
78488;BME280;67885;49.758;9.582;2023-12-07T07:48:54;99739.31;;;4.80;57.46
78488;BME280;67885;49.758;9.582;2023-12-07T07:51:21;99748.06;;;4.80;57.19
78488;BME280;67885;49.758;9.582;2023-12-07T07:53:48;99767.91;;;4.86;57.11
78488;BME280;67885;49.758;9.582;2023-12-07T07:56:15;99724.25;;;4.66;57.41
78488;BME280;67885;49.758;9.582;2023-12-07T07:58:42;99757.41;;;4.86;57.51
78488;BME280;67885;49.758;9.582;2023-12-07T08:01:08;99755.84;;;4.82;57.25
78488;BME280;67885;49.758;9.582;2023-12-07T08:03:35;99752.28;;;4.83;57.63
78488;BME280;67885;49.758;9.582;2023-12-07T08:06:02;99754.72;;;4.87;57.52
78488;BME280;67885;49.758;9.582;2023-12-07T08:08:28;99712.03;;;4.65;57.32
78488;BME280;67885;49.758;9.582;2023-12-07T08:10:56;99697.72;;;4.53;57.77
78488;BME280;67885;49.758;9.582;2023-12-07T08:13:23;99761.44;;;4.93;57.20
78488;BME280;67885;49.758;9.582;2023-12-07T08:15:49;99765.06;;;4.90;57.71
78488;BME280;67885;49.758;9.582;2023-12-07T08:18:16;99767.69;;;4.90;58.76
78488;BME280;67885;49.758;9.582;2023-12-07T08:20:43;99771.84;;;4.95;57.59
78488;BME280;67885;49.758;9.582;2023-12-07T08:23:09;99724.09;;;4.69;57.78
78488;BME280;67885;49.758;9.582;2023-12-07T08:25:38;99769.88;;;5.00;58.34
78488;BME280;67885;49.758;9.582;2023-12-07T08:28:06;99773.69;;;5.12;58.40
78488;BME280;67885;49.758;9.582;2023-12-07T08:30:34;99773.63;;;5.31;56.85
78488;BME280;67885;49.758;9.582;2023-12-07T08:33:01;99771.31;;;5.42;57.09
78488;BME280;67885;49.758;9.582;2023-12-07T08:35:28;99762.38;;;5.46;56.79
78488;BME280;67885;49.758;9.582;2023-12-07T08:37:54;99769.50;;;5.44;56.55
78488;BME280;67885;49.758;9.582;2023-12-07T08:40:21;99761.81;;;5.39;57.03
78488;BME280;67885;49.758;9.582;2023-12-07T08:42:47;99762.44;;;5.45;56.38
78488;BME280;67885;49.758;9.582;2023-12-07T08:45:16;99711.34;;;5.15;56.11
78488;BME280;67885;49.758;9.582;2023-12-07T08:47:42;99764.59;;;5.36;56.89
78488;BME280;67885;49.758;9.582;2023-12-07T08:50:09;99767.59;;;5.29;57.08
78488;BME280;67885;49.758;9.582;2023-12-07T08:52:36;99769.66;;;5.22;57.09
78488;BME280;67885;49.758;9.582;2023-12-07T08:55:03;99765.56;;;5.16;57.72
78488;BME280;67885;49.758;9.582;2023-12-07T08:57:30;99767.66;;;5.10;57.81
78488;BME280;67885;49.758;9.582;2023-12-07T08:59:55;99761.91;;;5.01;57.81
78488;BME280;67885;49.758;9.582;2023-12-07T09:02:24;99730.75;;;4.76;58.13
78488;BME280;67885;49.758;9.582;2023-12-07T09:04:51;99755.69;;;4.85;58.76
78488;BME280;67885;49.758;9.582;2023-12-07T09:07:17;99750.72;;;4.79;58.67
78488;BME280;67885;49.758;9.582;2023-12-07T09:09:44;99749.19;;;4.75;59.34
78488;BME280;67885;49.758;9.582;2023-12-07T09:12:13;99750.81;;;4.77;58.92
78488;BME280;67885;49.758;9.582;2023-12-07T09:14:40;99627.59;;;4.01;59.26
78488;BME280;67885;49.758;9.582;2023-12-07T09:17:06;99739.81;;;4.69;59.36
78488;BME280;67885;49.758;9.582;2023-12-07T09:19:34;99738.28;;;4.65;59.44
78488;BME280;67885;49.758;9.582;2023-12-07T09:22:01;99732.63;;;4.55;59.61
78488;BME280;67885;49.758;9.582;2023-12-07T09:24:27;99743.44;;;4.47;60.31
78488;BME280;67885;49.758;9.582;2023-12-07T09:26:54;99734.66;;;4.48;60.37
78488;BME280;67885;49.758;9.582;2023-12-07T09:29:20;99722.34;;;4.50;59.98
78488;BME280;67885;49.758;9.582;2023-12-07T09:31:47;99727.72;;;4.47;60.46
78488;BME280;67885;49.758;9.582;2023-12-07T09:34:14;99734.31;;;4.56;60.20
78488;BME280;67885;49.758;9.582;2023-12-07T09:36:44;99731.47;;;4.61;60.20
78488;BME280;67885;49.758;9.582;2023-12-07T09:39:11;99729.69;;;4.61;60.55
78488;BME280;67885;49.758;9.582;2023-12-07T09:41:41;99723.69;;;4.59;60.90
78488;BME280;67885;49.758;9.582;2023-12-07T09:44:12;99729.84;;;4.58;61.47
78488;BME280;67885;49.758;9.582;2023-12-07T09:46:38;99713.75;;;4.47;61.24
78488;BME280;67885;49.758;9.582;2023-12-07T09:49:05;99617.75;;;3.87;61.18
78488;BME280;67885;49.758;9.582;2023-12-07T09:51:32;99731.06;;;4.51;62.10
78488;BME280;67885;49.758;9.582;2023-12-07T09:54:02;99725.47;;;4.59;61.33
78488;BME280;67885;49.758;9.582;2023-12-07T09:56:30;99724.41;;;4.63;61.38
78488;BME280;67885;49.758;9.582;2023-12-07T09:58:57;99721.78;;;4.63;61.15
78488;BME280;67885;49.758;9.582;2023-12-07T10:01:28;99682.88;;;4.15;61.31
78488;BME280;67885;49.758;9.582;2023-12-07T10:04:15;99718.84;;;4.69;61.68
78488;BME280;67885;49.758;9.582;2023-12-07T10:06:43;99704.97;;;4.67;61.05
78488;BME280;67885;49.758;9.582;2023-12-07T10:09:12;99727.06;;;4.80;61.08
78488;BME280;67885;49.758;9.582;2023-12-07T10:11:39;99723.22;;;4.87;61.52
78488;BME280;67885;49.758;9.582;2023-12-07T10:14:06;99726.59;;;4.89;61.13
78488;BME280;67885;49.758;9.582;2023-12-07T10:16:34;99707.50;;;4.68;61.54
78488;BME280;67885;49.758;9.582;2023-12-07T10:19:13;99731.72;;;4.93;60.98
78488;BME280;67885;49.758;9.582;2023-12-07T10:21:40;99736.91;;;4.94;62.92
78488;BME280;67885;49.758;9.582;2023-12-07T10:24:07;99684.56;;;4.91;61.38
78488;BME280;67885;49.758;9.582;2023-12-07T10:26:37;99699.91;;;4.99;60.36
78488;BME280;67885;49.758;9.582;2023-12-07T10:29:05;99707.59;;;5.03;59.77
78488;BME280;67885;49.758;9.582;2023-12-07T10:31:31;99728.84;;;5.34;59.69
78488;BME280;67885;49.758;9.582;2023-12-07T10:33:58;99722.28;;;5.25;59.87
78488;BME280;67885;49.758;9.582;2023-12-07T10:36:25;99716.25;;;5.23;61.00
78488;BME280;67885;49.758;9.582;2023-12-07T10:38:53;99702.41;;;5.19;60.13
78488;BME280;67885;49.758;9.582;2023-12-07T10:41:20;99698.19;;;5.17;60.45
78488;BME280;67885;49.758;9.582;2023-12-07T10:43:51;99699.78;;;5.19;60.72
78488;BME280;67885;49.758;9.582;2023-12-07T10:46:20;99684.63;;;5.07;60.72
78488;BME280;67885;49.758;9.582;2023-12-07T10:48:48;99688.13;;;5.07;60.45
78488;BME280;67885;49.758;9.582;2023-12-07T10:51:26;99675.19;;;4.85;61.23
78488;BME280;67885;49.758;9.582;2023-12-07T10:53:57;99699.28;;;4.94;61.30
78488;BME280;67885;49.758;9.582;2023-12-07T10:56:29;99667.78;;;4.76;61.13
78488;BME280;67885;49.758;9.582;2023-12-07T10:59:00;99660.44;;;4.83;61.81
78488;BME280;67885;49.758;9.582;2023-12-07T11:01:29;99687.59;;;5.01;61.58
78488;BME280;67885;49.758;9.582;2023-12-07T11:03:58;99683.88;;;5.05;61.64
78488;BME280;67885;49.758;9.582;2023-12-07T11:06:26;99646.25;;;4.87;61.10
78488;BME280;67885;49.758;9.582;2023-12-07T11:08:58;99677.38;;;5.12;61.44
78488;BME280;67885;49.758;9.582;2023-12-07T11:11:31;99663.34;;;5.13;60.53
78488;BME280;67885;49.758;9.582;2023-12-07T11:14:03;99665.19;;;5.11;60.85
78488;BME280;67885;49.758;9.582;2023-12-07T11:16:32;99664.97;;;5.16;60.43
78488;BME280;67885;49.758;9.582;2023-12-07T11:18:59;99665.44;;;5.24;60.71
78488;BME280;67885;49.758;9.582;2023-12-07T11:21:26;99658.84;;;5.33;60.36
78488;BME280;67885;49.758;9.582;2023-12-07T11:23:52;99654.59;;;5.30;60.48
78488;BME280;67885;49.758;9.582;2023-12-07T11:26:20;99660.38;;;5.37;60.60
78488;BME280;67885;49.758;9.582;2023-12-07T11:28:47;99668.81;;;5.44;60.70
78488;BME280;67885;49.758;9.582;2023-12-07T11:31:16;99660.69;;;5.48;60.00
78488;BME280;67885;49.758;9.582;2023-12-07T11:33:43;99660.81;;;5.29;59.55
78488;BME280;67885;49.758;9.582;2023-12-07T11:36:11;99639.16;;;5.42;60.36
78488;BME280;67885;49.758;9.582;2023-12-07T11:39:17;99647.47;;;5.50;60.11
78488;BME280;67885;49.758;9.582;2023-12-07T11:41:50;99661.38;;;5.52;59.80
78488;BME280;67885;49.758;9.582;2023-12-07T11:44:17;99660.53;;;5.51;59.49
78488;BME280;67885;49.758;9.582;2023-12-07T11:46:45;99617.53;;;5.36;60.33
78488;BME280;67885;49.758;9.582;2023-12-07T11:49:12;99631.25;;;5.59;59.39
78488;BME280;67885;49.758;9.582;2023-12-07T11:51:39;99613.78;;;5.58;59.83
78488;BME280;67885;49.758;9.582;2023-12-07T11:54:05;99622.38;;;5.78;59.21
78488;BME280;67885;49.758;9.582;2023-12-07T11:56:33;99620.34;;;5.83;59.02
78488;BME280;67885;49.758;9.582;2023-12-07T11:59:00;99615.59;;;5.89;59.15
78488;BME280;67885;49.758;9.582;2023-12-07T12:01:28;99599.53;;;5.96;59.57
78488;BME280;67885;49.758;9.582;2023-12-07T12:03:57;99574.91;;;5.97;58.38
78488;BME280;67885;49.758;9.582;2023-12-07T12:06:24;99613.47;;;6.30;58.09
78488;BME280;67885;49.758;9.582;2023-12-07T12:08:51;99600.66;;;6.23;56.96
78488;BME280;67885;49.758;9.582;2023-12-07T12:11:18;99602.25;;;6.26;57.23
78488;BME280;67885;49.758;9.582;2023-12-07T12:13:45;99604.13;;;6.24;58.46
78488;BME280;67885;49.758;9.582;2023-12-07T12:16:12;99602.75;;;6.33;58.40
78488;BME280;67885;49.758;9.582;2023-12-07T12:18:39;99600.81;;;6.36;57.32
78488;BME280;67885;49.758;9.582;2023-12-07T12:21:08;99595.81;;;6.32;57.64
78488;BME280;67885;49.758;9.582;2023-12-07T12:23:35;99583.66;;;6.29;57.92
78488;BME280;67885;49.758;9.582;2023-12-07T12:26:03;99555.84;;;6.25;57.37
78488;BME280;67885;49.758;9.582;2023-12-07T12:28:30;99557.53;;;6.26;57.32
78488;BME280;67885;49.758;9.582;2023-12-07T12:30:58;99532.53;;;6.03;57.99
78488;BME280;67885;49.758;9.582;2023-12-07T12:33:26;99572.22;;;6.14;58.16
78488;BME280;67885;49.758;9.582;2023-12-07T12:36:01;99563.41;;;6.15;58.33
78488;BME280;67885;49.758;9.582;2023-12-07T12:38:30;99514.31;;;6.00;58.33
78488;BME280;67885;49.758;9.582;2023-12-07T12:40:56;99559.16;;;6.29;57.45
78488;BME280;67885;49.758;9.582;2023-12-07T12:43:23;99554.31;;;6.21;57.36
78488;BME280;67885;49.758;9.582;2023-12-07T12:45:50;99544.25;;;6.13;59.96
78488;BME280;67885;49.758;9.582;2023-12-07T12:48:17;99528.88;;;6.21;58.38
78488;BME280;67885;49.758;9.582;2023-12-07T12:50:44;99539.22;;;6.40;58.21
78488;BME280;67885;49.758;9.582;2023-12-07T12:53:11;99476.72;;;6.14;58.21
78488;BME280;67885;49.758;9.582;2023-12-07T12:55:41;99536.94;;;6.65;57.48
78488;BME280;67885;49.758;9.582;2023-12-07T12:58:09;99537.78;;;6.65;56.93
78488;BME280;67885;49.758;9.582;2023-12-07T13:00:38;99504.13;;;6.40;57.36
78488;BME280;67885;49.758;9.582;2023-12-07T13:03:06;99498.22;;;6.36;57.39
78488;BME280;67885;49.758;9.582;2023-12-07T13:05:33;99535.72;;;6.70;57.22
78488;BME280;67885;49.758;9.582;2023-12-07T13:08:02;99540.13;;;6.70;57.02
78488;BME280;67885;49.758;9.582;2023-12-07T13:10:29;99532.41;;;6.67;56.74
78488;BME280;67885;49.758;9.582;2023-12-07T13:12:57;99535.16;;;6.65;56.94
78488;BME280;67885;49.758;9.582;2023-12-07T13:15:23;99532.03;;;6.58;56.58